sensor_id;sensor_type;location;lat;lon;timestamp;P1;durP1;ratioP1;P2;durP2;ratioP2
47309;SDS011;33046;52.270;6.832;2023-01-20T00:00:07;36.33;;;23.83;;
47309;SDS011;33046;52.270;6.832;2023-01-20T00:02:17;35.05;;;22.98;;
47309;SDS011;33046;52.270;6.832;2023-01-20T00:04:24;30.67;;;21.58;;
47309;SDS011;33046;52.270;6.832;2023-01-20T00:06:31;32.63;;;22.88;;
47309;SDS011;33046;52.270;6.832;2023-01-20T00:08:38;32.03;;;22.15;;
47309;SDS011;33046;52.270;6.832;2023-01-20T00:10:45;32.90;;;22.27;;
47309;SDS011;33046;52.270;6.832;2023-01-20T00:12:52;33.80;;;21.70;;
47309;SDS011;33046;52.270;6.832;2023-01-20T00:14:59;35.75;;;24.67;;
47309;SDS011;33046;52.270;6.832;2023-01-20T00:17:07;34.60;;;23.33;;
47309;SDS011;33046;52.270;6.832;2023-01-20T00:19:14;33.55;;;23.55;;
47309;SDS011;33046;52.270;6.832;2023-01-20T00:21:21;36.13;;;23.80;;
47309;SDS011;33046;52.270;6.832;2023-01-20T00:23:28;33.95;;;24.73;;
47309;SDS011;33046;52.270;6.832;2023-01-20T00:25:35;34.08;;;22.33;;
47309;SDS011;33046;52.270;6.832;2023-01-20T00:27:42;34.40;;;23.98;;
47309;SDS011;33046;52.270;6.832;2023-01-20T00:29:49;34.92;;;24.13;;
47309;SDS011;33046;52.270;6.832;2023-01-20T00:31:56;32.80;;;23.42;;
47309;SDS011;33046;52.270;6.832;2023-01-20T00:34:04;38.17;;;23.67;;
47309;SDS011;33046;52.270;6.832;2023-01-20T00:36:11;34.83;;;24.25;;
47309;SDS011;33046;52.270;6.832;2023-01-20T00:38:19;37.97;;;27.02;;
47309;SDS011;33046;52.270;6.832;2023-01-20T00:40:26;35.13;;;24.23;;
47309;SDS011;33046;52.270;6.832;2023-01-20T00:42:33;43.28;;;24.08;;
47309;SDS011;33046;52.270;6.832;2023-01-20T00:44:55;34.15;;;23.02;;
47309;SDS011;33046;52.270;6.832;2023-01-20T00:47:01;31.50;;;21.92;;
47309;SDS011;33046;52.270;6.832;2023-01-20T00:49:10;34.13;;;22.77;;
47309;SDS011;33046;52.270;6.832;2023-01-20T00:51:17;31.02;;;20.88;;
47309;SDS011;33046;52.270;6.832;2023-01-20T00:53:24;35.55;;;21.70;;
47309;SDS011;33046;52.270;6.832;2023-01-20T00:55:31;36.75;;;22.55;;
47309;SDS011;33046;52.270;6.832;2023-01-20T00:57:38;36.30;;;25.17;;
47309;SDS011;33046;52.270;6.832;2023-01-20T00:59:44;32.35;;;23.13;;
47309;SDS011;33046;52.270;6.832;2023-01-20T01:01:51;34.97;;;22.02;;
47309;SDS011;33046;52.270;6.832;2023-01-20T01:03:58;35.13;;;23.17;;
47309;SDS011;33046;52.270;6.832;2023-01-20T01:06:08;32.63;;;22.52;;
47309;SDS011;33046;52.270;6.832;2023-01-20T01:08:16;32.15;;;20.75;;
47309;SDS011;33046;52.270;6.832;2023-01-20T01:10:22;36.92;;;23.08;;
47309;SDS011;33046;52.270;6.832;2023-01-20T01:12:30;38.15;;;22.98;;
47309;SDS011;33046;52.270;6.832;2023-01-20T01:14:36;37.80;;;23.83;;
47309;SDS011;33046;52.270;6.832;2023-01-20T01:16:43;38.00;;;24.05;;
47309;SDS011;33046;52.270;6.832;2023-01-20T01:18:51;35.47;;;23.02;;
47309;SDS011;33046;52.270;6.832;2023-01-20T01:20:59;37.90;;;22.42;;
47309;SDS011;33046;52.270;6.832;2023-01-20T01:23:13;37.38;;;23.30;;
47309;SDS011;33046;52.270;6.832;2023-01-20T01:25:20;37.65;;;23.30;;
47309;SDS011;33046;52.270;6.832;2023-01-20T01:27:27;32.83;;;23.33;;
47309;SDS011;33046;52.270;6.832;2023-01-20T01:29:34;37.30;;;24.27;;
47309;SDS011;33046;52.270;6.832;2023-01-20T01:31:40;32.83;;;22.88;;
47309;SDS011;33046;52.270;6.832;2023-01-20T01:33:47;32.78;;;22.65;;
47309;SDS011;33046;52.270;6.832;2023-01-20T01:35:54;31.38;;;21.08;;
47309;SDS011;33046;52.270;6.832;2023-01-20T01:38:03;29.30;;;21.40;;
47309;SDS011;33046;52.270;6.832;2023-01-20T01:40:10;30.38;;;21.08;;
47309;SDS011;33046;52.270;6.832;2023-01-20T01:42:18;30.73;;;20.02;;
47309;SDS011;33046;52.270;6.832;2023-01-20T01:44:27;32.28;;;19.27;;
47309;SDS011;33046;52.270;6.832;2023-01-20T01:46:34;29.90;;;19.15;;
47309;SDS011;33046;52.270;6.832;2023-01-20T01:48:42;27.33;;;18.65;;
47309;SDS011;33046;52.270;6.832;2023-01-20T01:50:51;29.65;;;20.55;;
47309;SDS011;33046;52.270;6.832;2023-01-20T01:53:02;27.65;;;18.05;;
47309;SDS011;33046;52.270;6.832;2023-01-20T01:55:11;29.23;;;18.25;;
47309;SDS011;33046;52.270;6.832;2023-01-20T01:57:21;28.30;;;19.42;;
47309;SDS011;33046;52.270;6.832;2023-01-20T01:59:28;26.50;;;19.02;;
47309;SDS011;33046;52.270;6.832;2023-01-20T02:01:35;27.42;;;18.88;;
47309;SDS011;33046;52.270;6.832;2023-01-20T02:03:47;23.63;;;17.73;;
47309;SDS011;33046;52.270;6.832;2023-01-20T02:05:58;23.40;;;16.20;;
47309;SDS011;33046;52.270;6.832;2023-01-20T02:08:07;22.45;;;16.20;;
47309;SDS011;33046;52.270;6.832;2023-01-20T02:10:14;24.27;;;15.98;;
47309;SDS011;33046;52.270;6.832;2023-01-20T02:12:21;20.80;;;15.38;;
47309;SDS011;33046;52.270;6.832;2023-01-20T02:14:29;19.48;;;14.55;;
47309;SDS011;33046;52.270;6.832;2023-01-20T02:16:41;18.15;;;13.63;;
47309;SDS011;33046;52.270;6.832;2023-01-20T02:18:58;15.38;;;12.52;;
47309;SDS011;33046;52.270;6.832;2023-01-20T02:21:33;16.45;;;12.48;;
47309;SDS011;33046;52.270;6.832;2023-01-20T02:24:09;15.88;;;11.23;;
47309;SDS011;33046;52.270;6.832;2023-01-20T02:26:47;16.52;;;12.00;;
47309;SDS011;33046;52.270;6.832;2023-01-20T02:29:15;16.83;;;12.40;;
47309;SDS011;33046;52.270;6.832;2023-01-20T02:32:04;17.00;;;11.85;;
47309;SDS011;33046;52.270;6.832;2023-01-20T02:34:18;16.05;;;11.70;;
47309;SDS011;33046;52.270;6.832;2023-01-20T02:36:36;15.30;;;11.38;;
47309;SDS011;33046;52.270;6.832;2023-01-20T02:38:48;14.38;;;9.98;;
47309;SDS011;33046;52.270;6.832;2023-01-20T02:41:04;12.57;;;9.95;;
47309;SDS011;33046;52.270;6.832;2023-01-20T02:43:16;14.18;;;10.63;;
47309;SDS011;33046;52.270;6.832;2023-01-20T02:45:27;16.38;;;12.27;;
47309;SDS011;33046;52.270;6.832;2023-01-20T02:47:43;16.65;;;11.75;;
47309;SDS011;33046;52.270;6.832;2023-01-20T02:49:55;16.02;;;11.90;;
47309;SDS011;33046;52.270;6.832;2023-01-20T02:52:08;12.88;;;9.93;;
47309;SDS011;33046;52.270;6.832;2023-01-20T02:54:18;11.63;;;10.07;;
47309;SDS011;33046;52.270;6.832;2023-01-20T02:56:27;13.45;;;10.43;;
47309;SDS011;33046;52.270;6.832;2023-01-20T02:58:38;9.15;;;8.02;;
47309;SDS011;33046;52.270;6.832;2023-01-20T03:00:49;9.88;;;8.35;;
47309;SDS011;33046;52.270;6.832;2023-01-20T03:03:01;12.18;;;8.48;;
47309;SDS011;33046;52.270;6.832;2023-01-20T03:05:13;9.47;;;7.17;;
47309;SDS011;33046;52.270;6.832;2023-01-20T03:07:24;11.13;;;8.23;;
47309;SDS011;33046;52.270;6.832;2023-01-20T03:09:34;12.45;;;8.05;;
47309;SDS011;33046;52.270;6.832;2023-01-20T03:11:44;9.50;;;7.60;;
47309;SDS011;33046;52.270;6.832;2023-01-20T03:13:57;9.98;;;8.02;;
47309;SDS011;33046;52.270;6.832;2023-01-20T03:16:10;13.35;;;8.38;;
47309;SDS011;33046;52.270;6.832;2023-01-20T03:18:21;10.43;;;8.57;;
47309;SDS011;33046;52.270;6.832;2023-01-20T03:20:28;12.52;;;8.98;;
47309;SDS011;33046;52.270;6.832;2023-01-20T03:22:36;11.68;;;8.02;;
47309;SDS011;33046;52.270;6.832;2023-01-20T03:24:43;10.07;;;8.20;;
47309;SDS011;33046;52.270;6.832;2023-01-20T03:26:52;12.40;;;10.02;;
47309;SDS011;33046;52.270;6.832;2023-01-20T03:29:00;12.70;;;9.70;;
47309;SDS011;33046;52.270;6.832;2023-01-20T03:31:11;12.52;;;9.18;;
47309;SDS011;33046;52.270;6.832;2023-01-20T03:33:21;15.95;;;10.18;;
47309;SDS011;33046;52.270;6.832;2023-01-20T03:35:29;14.27;;;11.27;;
47309;SDS011;33046;52.270;6.832;2023-01-20T03:37:37;13.32;;;11.02;;
47309;SDS011;33046;52.270;6.832;2023-01-20T03:39:44;14.88;;;10.98;;
47309;SDS011;33046;52.270;6.832;2023-01-20T03:41:52;13.00;;;10.95;;
47309;SDS011;33046;52.270;6.832;2023-01-20T03:44:10;15.43;;;10.90;;
47309;SDS011;33046;52.270;6.832;2023-01-20T03:46:26;17.42;;;11.68;;
47309;SDS011;33046;52.270;6.832;2023-01-20T03:48:39;15.20;;;11.35;;
47309;SDS011;33046;52.270;6.832;2023-01-20T03:50:52;17.25;;;11.73;;
47309;SDS011;33046;52.270;6.832;2023-01-20T03:53:04;18.02;;;12.20;;
47309;SDS011;33046;52.270;6.832;2023-01-20T03:55:15;19.85;;;13.32;;
47309;SDS011;33046;52.270;6.832;2023-01-20T03:57:27;19.25;;;13.80;;
47309;SDS011;33046;52.270;6.832;2023-01-20T03:59:39;19.97;;;14.37;;
47309;SDS011;33046;52.270;6.832;2023-01-20T04:01:48;19.50;;;13.27;;
47309;SDS011;33046;52.270;6.832;2023-01-20T04:03:58;20.23;;;14.85;;
47309;SDS011;33046;52.270;6.832;2023-01-20T04:06:08;19.55;;;14.63;;
47309;SDS011;33046;52.270;6.832;2023-01-20T04:08:19;23.35;;;15.98;;
47309;SDS011;33046;52.270;6.832;2023-01-20T04:10:29;21.30;;;15.38;;
47309;SDS011;33046;52.270;6.832;2023-01-20T04:12:38;26.73;;;17.23;;
47309;SDS011;33046;52.270;6.832;2023-01-20T04:14:46;22.50;;;16.85;;
47309;SDS011;33046;52.270;6.832;2023-01-20T04:16:53;22.42;;;15.93;;
47309;SDS011;33046;52.270;6.832;2023-01-20T04:19:03;22.27;;;16.55;;
47309;SDS011;33046;52.270;6.832;2023-01-20T04:21:11;22.52;;;15.20;;
47309;SDS011;33046;52.270;6.832;2023-01-20T04:23:24;25.63;;;16.02;;
47309;SDS011;33046;52.270;6.832;2023-01-20T04:25:34;24.75;;;16.67;;
47309;SDS011;33046;52.270;6.832;2023-01-20T04:27:41;23.60;;;15.88;;
47309;SDS011;33046;52.270;6.832;2023-01-20T04:29:48;22.08;;;16.45;;
47309;SDS011;33046;52.270;6.832;2023-01-20T04:31:58;24.00;;;16.75;;
47309;SDS011;33046;52.270;6.832;2023-01-20T04:34:08;31.50;;;18.45;;
47309;SDS011;33046;52.270;6.832;2023-01-20T04:36:18;29.58;;;18.60;;
47309;SDS011;33046;52.270;6.832;2023-01-20T04:38:24;26.23;;;16.17;;
47309;SDS011;33046;52.270;6.832;2023-01-20T04:40:31;24.75;;;17.02;;
47309;SDS011;33046;52.270;6.832;2023-01-20T04:42:38;25.10;;;18.13;;
47309;SDS011;33046;52.270;6.832;2023-01-20T04:44:45;23.98;;;16.63;;
47309;SDS011;33046;52.270;6.832;2023-01-20T04:46:54;25.45;;;17.23;;
47309;SDS011;33046;52.270;6.832;2023-01-20T04:49:02;29.02;;;19.10;;
47309;SDS011;33046;52.270;6.832;2023-01-20T04:51:11;24.15;;;18.08;;
47309;SDS011;33046;52.270;6.832;2023-01-20T04:53:18;24.80;;;17.55;;
47309;SDS011;33046;52.270;6.832;2023-01-20T04:55:25;25.95;;;17.90;;
47309;SDS011;33046;52.270;6.832;2023-01-20T04:57:31;26.05;;;17.17;;
47309;SDS011;33046;52.270;6.832;2023-01-20T04:59:38;30.80;;;20.50;;
47309;SDS011;33046;52.270;6.832;2023-01-20T05:01:46;25.52;;;16.98;;
47309;SDS011;33046;52.270;6.832;2023-01-20T05:03:53;27.45;;;18.63;;
47309;SDS011;33046;52.270;6.832;2023-01-20T05:06:00;29.23;;;18.95;;
47309;SDS011;33046;52.270;6.832;2023-01-20T05:08:08;25.85;;;19.33;;
47309;SDS011;33046;52.270;6.832;2023-01-20T05:10:15;31.75;;;17.88;;
47309;SDS011;33046;52.270;6.832;2023-01-20T05:12:22;26.90;;;17.17;;
47309;SDS011;33046;52.270;6.832;2023-01-20T05:14:29;25.58;;;18.02;;
47309;SDS011;33046;52.270;6.832;2023-01-20T05:16:36;31.58;;;17.75;;
47309;SDS011;33046;52.270;6.832;2023-01-20T05:18:43;25.58;;;17.92;;
47309;SDS011;33046;52.270;6.832;2023-01-20T05:20:49;27.92;;;17.52;;
47309;SDS011;33046;52.270;6.832;2023-01-20T05:22:56;28.27;;;19.65;;
47309;SDS011;33046;52.270;6.832;2023-01-20T05:25:07;25.33;;;18.25;;
47309;SDS011;33046;52.270;6.832;2023-01-20T05:27:14;26.40;;;18.58;;
47309;SDS011;33046;52.270;6.832;2023-01-20T05:29:21;25.95;;;17.95;;
47309;SDS011;33046;52.270;6.832;2023-01-20T05:31:28;27.85;;;18.33;;
47309;SDS011;33046;52.270;6.832;2023-01-20T05:33:35;27.60;;;18.45;;
47309;SDS011;33046;52.270;6.832;2023-01-20T05:35:42;26.45;;;15.93;;
47309;SDS011;33046;52.270;6.832;2023-01-20T05:37:51;23.17;;;15.95;;
47309;SDS011;33046;52.270;6.832;2023-01-20T05:39:58;25.92;;;18.58;;
47309;SDS011;33046;52.270;6.832;2023-01-20T05:42:06;25.88;;;18.35;;
47309;SDS011;33046;52.270;6.832;2023-01-20T05:44:14;29.25;;;17.38;;
47309;SDS011;33046;52.270;6.832;2023-01-20T05:46:21;25.75;;;17.58;;
47309;SDS011;33046;52.270;6.832;2023-01-20T05:48:28;24.00;;;18.20;;
47309;SDS011;33046;52.270;6.832;2023-01-20T05:50:35;24.23;;;17.75;;
47309;SDS011;33046;52.270;6.832;2023-01-20T05:52:41;23.05;;;16.48;;
47309;SDS011;33046;52.270;6.832;2023-01-20T05:54:48;26.65;;;16.52;;
47309;SDS011;33046;52.270;6.832;2023-01-20T05:56:55;23.00;;;16.13;;
47309;SDS011;33046;52.270;6.832;2023-01-20T05:59:03;20.80;;;16.25;;
47309;SDS011;33046;52.270;6.832;2023-01-20T06:01:11;21.50;;;14.23;;
47309;SDS011;33046;52.270;6.832;2023-01-20T06:03:19;19.67;;;15.98;;
47309;SDS011;33046;52.270;6.832;2023-01-20T06:05:25;22.77;;;15.63;;
47309;SDS011;33046;52.270;6.832;2023-01-20T06:07:32;20.33;;;14.23;;
47309;SDS011;33046;52.270;6.832;2023-01-20T06:09:39;19.40;;;14.57;;
47309;SDS011;33046;52.270;6.832;2023-01-20T06:11:46;23.60;;;15.95;;
47309;SDS011;33046;52.270;6.832;2023-01-20T06:13:53;20.73;;;14.73;;
47309;SDS011;33046;52.270;6.832;2023-01-20T06:16:01;22.15;;;14.38;;
47309;SDS011;33046;52.270;6.832;2023-01-20T06:18:10;24.20;;;16.73;;
47309;SDS011;33046;52.270;6.832;2023-01-20T06:20:17;24.17;;;16.25;;
47309;SDS011;33046;52.270;6.832;2023-01-20T06:22:24;20.83;;;14.30;;
47309;SDS011;33046;52.270;6.832;2023-01-20T06:24:31;21.25;;;15.45;;
47309;SDS011;33046;52.270;6.832;2023-01-20T06:26:38;21.40;;;15.85;;
47309;SDS011;33046;52.270;6.832;2023-01-20T06:28:45;22.38;;;14.75;;
47309;SDS011;33046;52.270;6.832;2023-01-20T06:30:57;21.45;;;16.58;;
47309;SDS011;33046;52.270;6.832;2023-01-20T06:33:06;21.08;;;14.98;;
47309;SDS011;33046;52.270;6.832;2023-01-20T06:35:13;22.55;;;15.35;;
47309;SDS011;33046;52.270;6.832;2023-01-20T06:37:20;21.95;;;15.18;;
47309;SDS011;33046;52.270;6.832;2023-01-20T06:39:27;23.83;;;16.02;;
47309;SDS011;33046;52.270;6.832;2023-01-20T06:41:34;23.02;;;16.13;;
47309;SDS011;33046;52.270;6.832;2023-01-20T06:43:41;20.40;;;14.98;;
47309;SDS011;33046;52.270;6.832;2023-01-20T06:45:48;18.90;;;13.98;;
47309;SDS011;33046;52.270;6.832;2023-01-20T06:47:55;22.15;;;14.60;;
47309;SDS011;33046;52.270;6.832;2023-01-20T06:50:03;21.33;;;15.48;;
47309;SDS011;33046;52.270;6.832;2023-01-20T06:52:11;22.38;;;15.15;;
47309;SDS011;33046;52.270;6.832;2023-01-20T06:54:18;21.10;;;14.45;;
47309;SDS011;33046;52.270;6.832;2023-01-20T06:56:25;22.20;;;16.10;;
47309;SDS011;33046;52.270;6.832;2023-01-20T06:58:32;24.83;;;16.45;;
47309;SDS011;33046;52.270;6.832;2023-01-20T07:00:39;24.27;;;15.50;;
47309;SDS011;33046;52.270;6.832;2023-01-20T07:02:46;27.35;;;17.13;;
47309;SDS011;33046;52.270;6.832;2023-01-20T07:04:53;25.02;;;15.52;;
47309;SDS011;33046;52.270;6.832;2023-01-20T07:07:01;23.95;;;15.82;;
47309;SDS011;33046;52.270;6.832;2023-01-20T07:09:09;23.63;;;16.40;;
47309;SDS011;33046;52.270;6.832;2023-01-20T07:11:17;23.17;;;15.27;;
47309;SDS011;33046;52.270;6.832;2023-01-20T07:13:24;21.45;;;15.73;;
47309;SDS011;33046;52.270;6.832;2023-01-20T07:15:30;25.10;;;17.00;;
47309;SDS011;33046;52.270;6.832;2023-01-20T07:17:37;24.05;;;15.82;;
47309;SDS011;33046;52.270;6.832;2023-01-20T07:19:44;27.40;;;18.63;;
47309;SDS011;33046;52.270;6.832;2023-01-20T07:21:51;28.15;;;17.10;;
47309;SDS011;33046;52.270;6.832;2023-01-20T07:23:59;29.02;;;18.08;;
47309;SDS011;33046;52.270;6.832;2023-01-20T07:26:07;26.50;;;17.92;;
47309;SDS011;33046;52.270;6.832;2023-01-20T07:28:15;27.90;;;18.50;;
47309;SDS011;33046;52.270;6.832;2023-01-20T07:30:22;28.83;;;18.80;;
47309;SDS011;33046;52.270;6.832;2023-01-20T07:32:29;30.85;;;19.80;;
47309;SDS011;33046;52.270;6.832;2023-01-20T07:34:36;29.17;;;18.88;;
47309;SDS011;33046;52.270;6.832;2023-01-20T07:36:43;28.15;;;18.45;;
47309;SDS011;33046;52.270;6.832;2023-01-20T07:38:50;36.70;;;19.77;;
47309;SDS011;33046;52.270;6.832;2023-01-20T07:40:59;29.52;;;19.35;;
47309;SDS011;33046;52.270;6.832;2023-01-20T07:43:09;31.33;;;19.15;;
47309;SDS011;33046;52.270;6.832;2023-01-20T07:45:16;28.17;;;18.25;;
47309;SDS011;33046;52.270;6.832;2023-01-20T07:47:22;29.77;;;18.50;;
47309;SDS011;33046;52.270;6.832;2023-01-20T07:49:29;25.02;;;16.38;;
47309;SDS011;33046;52.270;6.832;2023-01-20T07:51:36;27.05;;;15.95;;
47309;SDS011;33046;52.270;6.832;2023-01-20T07:53:43;27.38;;;17.58;;
47309;SDS011;33046;52.270;6.832;2023-01-20T07:55:51;34.00;;;17.92;;
47309;SDS011;33046;52.270;6.832;2023-01-20T07:57:59;26.65;;;18.38;;
47309;SDS011;33046;52.270;6.832;2023-01-20T08:00:07;29.50;;;18.42;;
47309;SDS011;33046;52.270;6.832;2023-01-20T08:02:14;28.80;;;17.42;;
47309;SDS011;33046;52.270;6.832;2023-01-20T08:04:21;33.35;;;18.60;;
47309;SDS011;33046;52.270;6.832;2023-01-20T08:06:28;30.35;;;17.88;;
47309;SDS011;33046;52.270;6.832;2023-01-20T08:08:35;30.50;;;18.45;;
47309;SDS011;33046;52.270;6.832;2023-01-20T08:10:42;25.58;;;16.48;;
47309;SDS011;33046;52.270;6.832;2023-01-20T08:12:49;29.95;;;20.02;;
47309;SDS011;33046;52.270;6.832;2023-01-20T08:14:57;28.85;;;17.02;;
47309;SDS011;33046;52.270;6.832;2023-01-20T08:17:04;31.38;;;19.33;;
47309;SDS011;33046;52.270;6.832;2023-01-20T08:19:11;29.73;;;18.52;;
47309;SDS011;33046;52.270;6.832;2023-01-20T08:21:19;25.98;;;17.55;;
47309;SDS011;33046;52.270;6.832;2023-01-20T08:23:27;27.73;;;18.30;;
47309;SDS011;33046;52.270;6.832;2023-01-20T08:25:33;26.95;;;17.80;;
47309;SDS011;33046;52.270;6.832;2023-01-20T08:27:40;25.48;;;17.77;;
47309;SDS011;33046;52.270;6.832;2023-01-20T08:29:47;27.25;;;16.50;;
47309;SDS011;33046;52.270;6.832;2023-01-20T08:31:56;32.33;;;18.40;;
47309;SDS011;33046;52.270;6.832;2023-01-20T08:34:04;23.45;;;15.70;;
47309;SDS011;33046;52.270;6.832;2023-01-20T08:36:11;28.90;;;16.67;;
47309;SDS011;33046;52.270;6.832;2023-01-20T08:38:20;29.27;;;16.90;;
47309;SDS011;33046;52.270;6.832;2023-01-20T08:40:26;26.27;;;16.42;;
47309;SDS011;33046;52.270;6.832;2023-01-20T08:42:33;30.45;;;18.90;;
47309;SDS011;33046;52.270;6.832;2023-01-20T08:44:40;28.13;;;17.83;;
47309;SDS011;33046;52.270;6.832;2023-01-20T08:46:47;25.67;;;16.05;;
47309;SDS011;33046;52.270;6.832;2023-01-20T08:48:55;28.05;;;16.58;;
47309;SDS011;33046;52.270;6.832;2023-01-20T08:51:02;26.35;;;16.98;;
47309;SDS011;33046;52.270;6.832;2023-01-20T08:53:10;27.13;;;16.80;;
47309;SDS011;33046;52.270;6.832;2023-01-20T08:55:17;29.75;;;16.90;;
47309;SDS011;33046;52.270;6.832;2023-01-20T08:57:24;22.55;;;14.55;;
47309;SDS011;33046;52.270;6.832;2023-01-20T08:59:30;25.83;;;15.82;;
47309;SDS011;33046;52.270;6.832;2023-01-20T09:01:37;25.50;;;15.15;;
47309;SDS011;33046;52.270;6.832;2023-01-20T09:03:44;26.67;;;16.92;;
47309;SDS011;33046;52.270;6.832;2023-01-20T09:08:16;26.77;;;16.45;;
47309;SDS011;33046;52.270;6.832;2023-01-20T09:10:23;26.10;;;15.82;;
47309;SDS011;33046;52.270;6.832;2023-01-20T09:12:30;28.35;;;17.23;;
47309;SDS011;33046;52.270;6.832;2023-01-20T09:14:37;23.25;;;15.18;;
47309;SDS011;33046;52.270;6.832;2023-01-20T09:16:44;26.58;;;16.25;;
47309;SDS011;33046;52.270;6.832;2023-01-20T09:18:51;26.52;;;16.60;;
47309;SDS011;33046;52.270;6.832;2023-01-20T09:20:57;30.42;;;19.23;;
47309;SDS011;33046;52.270;6.832;2023-01-20T09:23:06;25.08;;;15.40;;
47309;SDS011;33046;52.270;6.832;2023-01-20T09:25:12;24.33;;;15.25;;
47309;SDS011;33046;52.270;6.832;2023-01-20T09:27:20;21.33;;;14.05;;
47309;SDS011;33046;52.270;6.832;2023-01-20T09:29:26;21.77;;;14.80;;
47309;SDS011;33046;52.270;6.832;2023-01-20T09:31:33;27.52;;;15.05;;
47309;SDS011;33046;52.270;6.832;2023-01-20T09:33:40;23.83;;;14.73;;
47309;SDS011;33046;52.270;6.832;2023-01-20T09:35:52;26.35;;;16.17;;
47309;SDS011;33046;52.270;6.832;2023-01-20T09:37:59;23.60;;;16.50;;
47309;SDS011;33046;52.270;6.832;2023-01-20T09:40:09;25.52;;;15.93;;
47309;SDS011;33046;52.270;6.832;2023-01-20T09:42:21;23.27;;;14.77;;
47309;SDS011;33046;52.270;6.832;2023-01-20T09:44:41;29.50;;;17.27;;
47309;SDS011;33046;52.270;6.832;2023-01-20T09:47:00;23.95;;;16.90;;
47309;SDS011;33046;52.270;6.832;2023-01-20T09:49:18;30.23;;;17.85;;
47309;SDS011;33046;52.270;6.832;2023-01-20T09:51:31;28.13;;;16.80;;
47309;SDS011;33046;52.270;6.832;2023-01-20T09:53:46;27.92;;;16.90;;
47309;SDS011;33046;52.270;6.832;2023-01-20T09:56:03;25.42;;;16.92;;
47309;SDS011;33046;52.270;6.832;2023-01-20T09:58:15;28.20;;;18.15;;
47309;SDS011;33046;52.270;6.832;2023-01-20T10:00:32;28.33;;;18.52;;
47309;SDS011;33046;52.270;6.832;2023-01-20T10:02:41;30.98;;;18.30;;
47309;SDS011;33046;52.270;6.832;2023-01-20T10:04:53;26.53;;;16.90;;
47309;SDS011;33046;52.270;6.832;2023-01-20T10:07:06;26.77;;;16.98;;
47309;SDS011;33046;52.270;6.832;2023-01-20T10:09:17;24.42;;;17.15;;
47309;SDS011;33046;52.270;6.832;2023-01-20T10:11:31;21.67;;;15.20;;
47309;SDS011;33046;52.270;6.832;2023-01-20T10:13:43;25.38;;;16.42;;
47309;SDS011;33046;52.270;6.832;2023-01-20T10:15:55;25.40;;;15.02;;
47309;SDS011;33046;52.270;6.832;2023-01-20T10:18:03;26.02;;;15.93;;
47309;SDS011;33046;52.270;6.832;2023-01-20T10:20:13;25.42;;;16.52;;
47309;SDS011;33046;52.270;6.832;2023-01-20T10:22:26;22.83;;;15.00;;
47309;SDS011;33046;52.270;6.832;2023-01-20T10:24:39;24.50;;;14.82;;
47309;SDS011;33046;52.270;6.832;2023-01-20T10:26:53;21.83;;;14.43;;
47309;SDS011;33046;52.270;6.832;2023-01-20T10:29:05;23.85;;;16.90;;
47309;SDS011;33046;52.270;6.832;2023-01-20T10:31:16;20.55;;;14.75;;
47309;SDS011;33046;52.270;6.832;2023-01-20T10:33:29;27.30;;;17.93;;
47309;SDS011;33046;52.270;6.832;2023-01-20T10:35:40;24.08;;;17.08;;
47309;SDS011;33046;52.270;6.832;2023-01-20T10:37:51;24.13;;;15.90;;
47309;SDS011;33046;52.270;6.832;2023-01-20T10:39:59;25.98;;;18.40;;
47309;SDS011;33046;52.270;6.832;2023-01-20T10:42:14;21.98;;;15.00;;
47309;SDS011;33046;52.270;6.832;2023-01-20T10:44:22;24.02;;;16.35;;
47309;SDS011;33046;52.270;6.832;2023-01-20T10:46:32;26.48;;;17.30;;
47309;SDS011;33046;52.270;6.832;2023-01-20T10:49:08;28.10;;;17.35;;
47309;SDS011;33046;52.270;6.832;2023-01-20T10:51:32;25.95;;;15.43;;
47309;SDS011;33046;52.270;6.832;2023-01-20T10:53:50;22.02;;;16.17;;
47309;SDS011;33046;52.270;6.832;2023-01-20T10:56:06;24.48;;;17.00;;
47309;SDS011;33046;52.270;6.832;2023-01-20T10:58:28;29.17;;;17.60;;
47309;SDS011;33046;52.270;6.832;2023-01-20T11:00:36;26.90;;;16.83;;
47309;SDS011;33046;52.270;6.832;2023-01-20T11:02:46;27.00;;;18.52;;
47309;SDS011;33046;52.270;6.832;2023-01-20T11:04:53;28.27;;;16.40;;
47309;SDS011;33046;52.270;6.832;2023-01-20T11:07:04;27.00;;;16.73;;
47309;SDS011;33046;52.270;6.832;2023-01-20T11:09:16;26.52;;;18.15;;
47309;SDS011;33046;52.270;6.832;2023-01-20T11:11:28;28.20;;;17.77;;
47309;SDS011;33046;52.270;6.832;2023-01-20T11:13:37;26.63;;;16.95;;
47309;SDS011;33046;52.270;6.832;2023-01-20T11:15:45;26.15;;;17.15;;
47309;SDS011;33046;52.270;6.832;2023-01-20T11:20:29;24.98;;;17.42;;
47309;SDS011;33046;52.270;6.832;2023-01-20T11:22:36;24.90;;;17.38;;
47309;SDS011;33046;52.270;6.832;2023-01-20T11:24:43;24.48;;;17.10;;
47309;SDS011;33046;52.270;6.832;2023-01-20T11:26:50;24.85;;;17.00;;
47309;SDS011;33046;52.270;6.832;2023-01-20T11:28:59;26.75;;;16.63;;
47309;SDS011;33046;52.270;6.832;2023-01-20T11:31:07;28.67;;;19.10;;
47309;SDS011;33046;52.270;6.832;2023-01-20T11:33:15;25.20;;;15.98;;
47309;SDS011;33046;52.270;6.832;2023-01-20T11:35:24;24.40;;;16.50;;
47309;SDS011;33046;52.270;6.832;2023-01-20T11:37:34;28.02;;;17.10;;
47309;SDS011;33046;52.270;6.832;2023-01-20T11:39:43;24.27;;;17.42;;
47309;SDS011;33046;52.270;6.832;2023-01-20T11:42:10;26.15;;;17.27;;
47309;SDS011;33046;52.270;6.832;2023-01-20T11:44:21;30.55;;;18.75;;
47309;SDS011;33046;52.270;6.832;2023-01-20T11:46:29;30.27;;;19.48;;
47309;SDS011;33046;52.270;6.832;2023-01-20T11:48:36;25.23;;;19.00;;
47309;SDS011;33046;52.270;6.832;2023-01-20T11:50:47;36.08;;;21.38;;
47309;SDS011;33046;52.270;6.832;2023-01-20T11:53:10;29.00;;;20.33;;
47309;SDS011;33046;52.270;6.832;2023-01-20T11:55:28;26.25;;;18.95;;
47309;SDS011;33046;52.270;6.832;2023-01-20T11:57:35;30.17;;;19.85;;
47309;SDS011;33046;52.270;6.832;2023-01-20T11:59:47;33.67;;;22.17;;
47309;SDS011;33046;52.270;6.832;2023-01-20T12:01:58;33.15;;;22.20;;
47309;SDS011;33046;52.270;6.832;2023-01-20T12:04:15;33.83;;;21.95;;
47309;SDS011;33046;52.270;6.832;2023-01-20T12:06:28;33.35;;;21.88;;
47309;SDS011;33046;52.270;6.832;2023-01-20T12:37:03;23.90;;;16.38;;
47309;SDS011;33046;52.270;6.832;2023-01-20T12:39:26;23.77;;;15.55;;
47309;SDS011;33046;52.270;6.832;2023-01-20T12:41:57;29.70;;;17.58;;
47309;SDS011;33046;52.270;6.832;2023-01-20T12:44:31;28.58;;;18.85;;
47309;SDS011;33046;52.270;6.832;2023-01-20T12:46:43;26.80;;;16.42;;
47309;SDS011;33046;52.270;6.832;2023-01-20T12:48:58;27.65;;;17.13;;
47309;SDS011;33046;52.270;6.832;2023-01-20T12:51:18;26.02;;;19.45;;
47309;SDS011;33046;52.270;6.832;2023-01-20T12:53:41;25.55;;;17.55;;
47309;SDS011;33046;52.270;6.832;2023-01-20T12:56:02;25.98;;;17.60;;
47309;SDS011;33046;52.270;6.832;2023-01-20T12:58:23;24.40;;;16.73;;
47309;SDS011;33046;52.270;6.832;2023-01-20T13:00:47;26.02;;;16.25;;
47309;SDS011;33046;52.270;6.832;2023-01-20T13:03:13;30.23;;;17.87;;
47309;SDS011;33046;52.270;6.832;2023-01-20T13:05:52;27.13;;;16.65;;
47309;SDS011;33046;52.270;6.832;2023-01-20T13:08:09;23.50;;;16.40;;
47309;SDS011;33046;52.270;6.832;2023-01-20T13:10:32;23.90;;;16.42;;
47309;SDS011;33046;52.270;6.832;2023-01-20T13:12:53;23.67;;;16.13;;
47309;SDS011;33046;52.270;6.832;2023-01-20T13:15:13;25.25;;;17.25;;